Time;durP1;ratioP1;P1;durP2;ratioP2;P2;SDS_P1;SDS_P2;PMS_P1;PMS_P2;Temp;Humidity;BMP_temperature;BMP_pressure;BME280_temperature;BME280_humidity;BME280_pressure;Samples;Min_cycle;Max_cycle;Signal;HPM_P1;HPM_P2
2022/09/28 00:17:27;;;;;;;28.27;26.97;;;9.70;99.90;;;;;;5504217;23;21011;-71
2022/09/28 00:19:54;;;;;;;26.87;25.77;;;9.70;99.90;;;;;;4969999;28;20459;-73
2022/09/28 00:22:20;;;;;;;26.70;25.50;;;9.70;99.90;;;;;;4969507;28;20458;-72
2022/09/28 00:24:47;;;;;;;27.43;26.13;;;9.70;99.90;;;;;;4969412;28;20452;-73
2022/09/28 00:27:13;;;;;;;27.43;26.10;;;9.70;99.90;;;;;;4969249;28;20462;-73
2022/09/28 00:29:40;;;;;;;28.00;26.60;;;9.80;99.90;;;;;;4969691;28;20478;-72
2022/09/28 00:32:11;;;;;;;28.80;27.20;;;9.80;99.90;;;;;;4970467;28;20452;-72
2022/09/28 00:34:42;;;;;;;27.80;26.40;;;9.80;99.90;;;;;;4973170;28;20465;-71
2022/09/28 00:37:09;;;;;;;27.57;26.17;;;9.80;99.90;;;;;;4973168;28;20458;-73
2022/09/28 00:39:37;;;;;;;26.80;25.30;;;9.80;99.90;;;;;;4972888;28;20459;-74
2022/09/28 00:42:09;;;;;;;28.20;26.70;;;9.90;99.90;;;;;;4972812;28;20804;-73
2022/09/28 00:44:42;;;;;;;27.27;25.87;;;9.90;99.90;;;;;;4973052;28;20451;-72
2022/09/28 00:47:18;;;;;;;27.87;26.37;;;9.90;99.90;;;;;;4972895;28;20455;-74
2022/09/28 00:49:50;;;;;;;27.37;25.97;;;9.90;99.90;;;;;;4972566;28;20479;-73
2022/09/28 00:52:31;;;;;;;28.63;26.90;;;9.90;99.90;;;;;;4972612;28;20458;-73
2022/09/28 00:55:00;;;;;;;28.13;26.53;;;9.90;99.90;;;;;;4972638;28;20482;-73
2022/09/28 00:57:28;;;;;;;27.43;26.13;;;9.90;99.90;;;;;;4972697;28;20514;-74
2022/09/28 00:59:55;;;;;;;27.33;25.93;;;9.90;99.90;;;;;;4972875;28;20448;-73
2022/09/28 01:02:22;;;;;;;25.90;24.60;;;9.80;99.90;;;;;;4972514;28;20447;-73
2022/09/28 01:04:51;;;;;;;25.63;24.43;;;9.90;99.90;;;;;;4972316;28;20460;-74
2022/09/28 01:07:18;;;;;;;26.10;24.70;;;9.90;99.90;;;;;;4972327;28;20830;-73
2022/09/28 01:09:45;;;;;;;25.07;23.87;;;9.90;99.90;;;;;;4972187;28;20499;-73
2022/09/28 01:12:12;;;;;;;25.93;24.50;;;9.90;99.90;;;;;;4972378;28;20477;-72
2022/09/28 01:14:40;;;;;;;26.93;25.53;;;9.90;99.90;;;;;;4972528;28;20452;-73
2022/09/28 01:17:13;;;;;;;26.93;25.73;;;9.90;99.90;;;;;;4972019;28;20497;-72
2022/09/28 01:20:17;;;;;;;27.77;26.30;;;9.90;99.90;;;;;;4972396;28;20452;-73
2022/09/28 01:23:27;;;;;;;26.93;25.57;;;10.00;99.90;;;;;;4971977;28;20462;-72
2022/09/28 01:25:59;;;;;;;26.30;25.03;;;10.00;99.90;;;;;;4972500;28;20486;-73
2022/09/28 01:28:29;;;;;;;26.00;24.80;;;10.00;99.90;;;;;;4972175;28;21024;-73
2022/09/28 01:31:03;;;;;;;25.83;24.63;;;10.00;99.90;;;;;;4971946;28;20453;-73
2022/09/28 01:33:36;;;;;;;25.70;24.37;;;10.00;99.90;;;;;;4971908;28;20454;-73
2022/09/28 01:36:09;;;;;;;26.20;24.90;;;10.00;99.90;;;;;;4971896;28;20463;-73
2022/09/28 01:38:40;;;;;;;26.70;25.20;;;10.10;99.90;;;;;;4971975;28;20444;-73
2022/09/28 01:41:08;;;;;;;26.93;25.53;;;10.10;99.90;;;;;;4972017;28;21047;-73
2022/09/28 05:16:34;;;;;;;33.20;31.40;;;10.80;99.90;;;;;;5341492;23;20498;-73
2022/09/28 05:19:01;;;;;;;32.10;30.50;;;10.80;99.90;;;;;;4988401;28;20469;-72
2022/09/28 05:21:28;;;;;;;33.73;31.93;;;10.80;99.90;;;;;;4991169;28;20455;-73
2022/09/28 05:23:57;;;;;;;35.93;34.03;;;10.80;99.90;;;;;;4991141;28;20451;-73
2022/09/28 05:26:24;;;;;;;36.57;34.77;;;10.80;99.90;;;;;;4991023;28;20451;-73
2022/09/28 05:28:50;;;;;;;37.03;35.17;;;10.80;99.90;;;;;;4990653;28;20490;-74
2022/09/28 05:31:17;;;;;;;36.73;35.00;;;10.80;99.90;;;;;;4990943;28;20506;-73
2022/09/28 05:33:45;;;;;;;35.63;33.53;;;10.80;99.90;;;;;;4990430;28;20467;-74
2022/09/28 05:36:12;;;;;;;35.20;33.30;;;10.80;99.90;;;;;;4990332;28;20513;-73
2022/09/28 05:38:38;;;;;;;36.63;34.63;;;10.80;99.90;;;;;;4990622;28;20758;-73
2022/09/28 05:41:05;;;;;;;38.23;36.03;;;10.90;99.90;;;;;;4990253;28;20466;-75
2022/09/28 05:43:32;;;;;;;38.73;36.47;;;10.90;99.90;;;;;;4990675;28;20473;-74
2022/09/28 05:45:59;;;;;;;37.57;35.50;;;10.80;99.90;;;;;;4990618;28;20451;-73
2022/09/28 05:48:27;;;;;;;38.70;36.70;;;10.90;99.90;;;;;;4990749;28;20569;-74
2022/09/28 05:50:57;;;;;;;39.77;37.27;;;10.90;99.90;;;;;;4990428;28;20451;-73
2022/09/28 05:53:24;;;;;;;37.30;35.50;;;11.00;99.90;;;;;;4990983;28;20761;-76
2022/09/28 05:55:51;;;;;;;37.10;35.20;;;11.00;99.90;;;;;;4990190;28;20521;-75
2022/09/28 05:58:18;;;;;;;39.80;37.60;;;11.00;99.90;;;;;;4990236;28;20988;-73
2022/09/28 06:00:44;;;;;;;34.17;32.37;;;11.00;99.90;;;;;;4989650;28;20828;-73
2022/09/28 06:03:13;;;;;;;36.70;34.53;;;10.90;99.90;;;;;;4990481;28;20481;-72
2022/09/28 06:05:40;;;;;;;35.90;33.80;;;10.90;99.90;;;;;;4990330;28;20477;-73
2022/09/28 06:08:10;;;;;;;35.33;33.53;;;10.90;99.90;;;;;;4989775;28;20986;-73
2022/09/28 06:10:37;;;;;;;35.17;33.20;;;10.90;99.90;;;;;;4989921;28;20634;-73
2022/09/28 06:13:04;;;;;;;36.00;34.10;;;10.80;99.90;;;;;;4989706;28;20447;-73
2022/09/28 06:15:33;;;;;;;35.63;33.93;;;10.80;99.90;;;;;;4989662;28;20489;-74
2022/09/28 06:18:01;;;;;;;37.00;35.00;;;10.90;99.90;;;;;;4989862;28;20479;-73
2022/09/28 06:20:30;;;;;;;34.07;32.37;;;10.90;99.90;;;;;;4990215;28;20447;-73
2022/09/28 06:22:57;;;;;;;33.97;32.37;;;10.80;99.90;;;;;;4991111;28;20451;-72
2022/09/28 06:25:26;;;;;;;37.13;34.70;;;10.90;99.90;;;;;;4990896;28;20455;-73
2022/09/28 06:27:56;;;;;;;35.07;33.27;;;10.90;99.90;;;;;;4990750;28;20471;-76
2022/09/28 06:30:25;;;;;;;36.90;35.10;;;11.00;99.90;;;;;;4990075;28;20486;-74
2022/09/28 06:32:53;;;;;;;36.43;34.33;;;11.10;99.90;;;;;;4990616;28;20944;-75
2022/09/28 06:35:20;;;;;;;37.27;35.37;;;11.10;99.90;;;;;;4990878;28;20455;-75
2022/09/28 06:37:47;;;;;;;39.00;37.10;;;11.10;99.90;;;;;;4993120;28;20459;-74
2022/09/28 06:40:48;;;;;;;37.80;35.83;;;11.20;99.90;;;;;;4990389;28;20965;-75
2022/09/28 06:43:15;;;;;;;39.27;37.17;;;11.20;99.90;;;;;;4984409;28;20486;-76
2022/09/28 06:45:43;;;;;;;38.57;36.57;;;11.40;99.90;;;;;;4989637;28;20451;-76
2022/09/28 06:48:10;;;;;;;38.97;37.00;;;11.40;99.90;;;;;;4990313;28;20455;-76
2022/09/28 06:50:40;;;;;;;40.10;37.80;;;11.40;99.90;;;;;;4989917;28;20455;-75
2022/09/28 06:53:09;;;;;;;39.10;37.10;;;11.50;99.90;;;;;;4989795;28;20453;-74
2022/09/28 06:55:38;;;;;;;38.67;36.77;;;11.60;99.90;;;;;;4989343;28;20486;-75
2022/09/28 06:58:10;;;;;;;39.00;37.10;;;11.60;99.90;;;;;;4989304;28;20455;-75
2022/09/28 07:00:38;;;;;;;41.30;39.20;;;11.40;99.90;;;;;;4989459;28;20474;-75
2022/09/28 07:03:07;;;;;;;40.60;38.60;;;11.30;99.90;;;;;;4989272;28;20854;-74
2022/09/28 07:05:35;;;;;;;39.50;37.40;;;11.30;99.90;;;;;;4989537;28;21156;-77
2022/09/28 07:08:03;;;;;;;42.53;40.33;;;11.20;99.90;;;;;;4990545;28;20491;-79
2022/09/28 07:10:31;;;;;;;40.80;38.50;;;11.30;99.90;;;;;;4990632;28;20486;-81
2022/09/28 07:13:01;;;;;;;41.33;39.13;;;11.40;99.90;;;;;;4992829;28;20541;-81
2022/09/28 07:15:29;;;;;;;40.97;38.73;;;11.40;99.90;;;;;;4992980;28;20485;-81
2022/09/28 07:17:57;;;;;;;41.00;38.50;;;11.40;99.90;;;;;;4991656;28;20447;-82
2022/09/28 07:20:25;;;;;;;40.63;38.40;;;11.50;99.90;;;;;;4992047;28;20482;-85
2022/09/28 07:22:53;;;;;;;39.97;38.00;;;11.50;99.90;;;;;;4991300;28;20467;-80
2022/09/28 07:25:20;;;;;;;40.67;38.50;;;11.70;99.90;;;;;;4989679;28;20458;-82
2022/09/28 07:27:47;;;;;;;40.33;38.17;;;11.70;99.90;;;;;;4989115;28;20978;-81
2022/09/28 07:30:14;;;;;;;41.93;39.63;;;11.80;99.90;;;;;;4988992;28;20864;-78
2022/09/28 07:32:44;;;;;;;40.17;37.97;;;11.90;99.90;;;;;;4988870;28;20532;-78
2022/09/28 07:35:11;;;;;;;41.70;39.10;;;12.00;99.90;;;;;;4989136;28;20462;-75
2022/09/28 07:37:38;;;;;;;37.47;35.47;;;12.00;99.90;;;;;;4988339;28;20450;-75
2022/09/28 07:42:51;;;;;;;42.57;40.47;;;12.20;99.90;;;;;;4990454;28;20613;-75
2022/09/28 07:45:19;;;;;;;39.63;37.43;;;12.30;99.90;;;;;;4992036;28;20790;-75
2022/09/28 07:47:47;;;;;;;39.80;37.57;;;12.20;99.90;;;;;;4992224;28;20465;-74
2022/09/28 07:50:14;;;;;;;39.40;37.30;;;12.30;99.90;;;;;;4992271;28;20486;-75
2022/09/28 07:52:43;;;;;;;40.17;38.17;;;12.40;99.90;;;;;;4992421;28;20460;-74
2022/09/28 07:55:10;;;;;;;40.53;38.53;;;12.30;99.90;;;;;;4992326;28;20462;-74
2022/09/28 07:57:36;;;;;;;41.43;39.10;;;12.40;99.90;;;;;;4991886;28;20451;-74
2022/09/28 08:00:06;;;;;;;39.80;37.80;;;12.50;99.90;;;;;;4991527;28;20454;-73
2022/09/28 08:02:34;;;;;;;35.70;33.97;;;12.70;99.90;;;;;;4991657;28;20798;-73
2022/09/28 08:05:02;;;;;;;38.60;36.50;;;12.70;99.90;;;;;;4991610;28;20458;-74
2022/09/28 08:07:28;;;;;;;37.70;35.80;;;12.70;99.90;;;;;;4991761;28;20535;-74
2022/09/28 08:09:55;;;;;;;35.67;33.50;;;12.80;99.90;;;;;;4991766;28;20988;-74
2022/09/28 08:12:22;;;;;;;36.73;35.00;;;12.80;99.90;;;;;;4991469;28;20453;-73
2022/09/28 08:14:51;;;;;;;35.03;33.27;;;13.00;99.90;;;;;;4991258;28;20815;-74
2022/09/28 08:17:17;;;;;;;34.30;32.70;;;13.10;99.90;;;;;;4985207;28;20960;-73
2022/09/28 08:22:31;;;;;;;28.10;26.90;;;12.90;99.90;;;;;;4991805;28;20795;-73
2022/09/28 08:24:58;;;;;;;26.80;25.53;;;12.60;99.90;;;;;;4991901;28;20454;-73
2022/09/28 08:27:24;;;;;;;25.70;24.10;;;12.90;99.90;;;;;;4991832;28;20451;-74
2022/09/28 08:29:51;;;;;;;25.23;23.70;;;12.80;99.90;;;;;;4991596;28;21004;-74
2022/09/28 08:32:18;;;;;;;23.57;22.27;;;13.10;99.90;;;;;;4991999;28;20868;-73
2022/09/28 08:34:45;;;;;;;22.30;21.30;;;13.30;99.90;;;;;;4991558;28;20537;-74
2022/09/28 08:37:12;;;;;;;21.70;20.60;;;13.60;99.90;;;;;;4991910;28;20458;-74
2022/09/28 08:39:40;;;;;;;20.27;19.23;;;13.70;99.90;;;;;;4991726;28;20766;-74
2022/09/28 08:42:30;;;;;;;17.87;17.00;;;14.00;99.90;;;;;;4991467;28;20443;-74
2022/09/28 08:45:05;;;;;;;16.40;15.60;;;14.30;99.90;;;;;;4991460;28;20545;-74
2022/09/28 08:50:28;;;;;;;14.90;14.30;;;14.60;99.90;;;;;;4991130;28;20687;-73
2022/09/28 08:52:59;;;;;;;14.23;13.53;;;14.70;99.90;;;;;;4990453;28;20462;-73
2022/09/28 08:55:31;;;;;;;14.83;13.93;;;14.90;99.90;;;;;;4990399;28;20459;-73
2022/09/28 08:58:01;;;;;;;15.93;14.90;;;14.90;99.90;;;;;;4990771;28;20458;-75
2022/09/28 09:00:33;;;;;;;15.00;14.33;;;14.90;99.90;;;;;;4990961;28;20546;-74
2022/09/28 09:03:05;;;;;;;15.40;14.40;;;14.80;99.90;;;;;;4992716;28;20562;-74
2022/09/28 09:05:47;;;;;;;14.60;13.90;;;14.60;99.90;;;;;;4988794;28;20489;-79
2022/09/28 09:08:31;;;;;;;13.83;13.23;;;14.60;99.90;;;;;;4990804;28;21037;-74
2022/09/28 09:11:09;;;;;;;15.07;13.93;;;14.60;99.90;;;;;;4991072;28;20493;-75
2022/09/28 09:13:48;;;;;;;14.07;13.40;;;14.40;99.90;;;;;;4990776;28;20469;-78
2022/09/28 09:16:28;;;;;;;13.77;13.00;;;14.40;99.90;;;;;;4990105;28;20552;-74
2022/09/28 09:18:58;;;;;;;13.27;12.67;;;14.60;99.90;;;;;;4990737;28;20904;-74
2022/09/28 09:21:39;;;;;;;14.20;13.40;;;14.90;99.90;;;;;;4990621;28;20826;-76
2022/09/28 09:24:18;;;;;;;13.77;13.07;;;15.40;99.90;;;;;;4990289;28;20549;-74
2022/09/28 09:26:46;;;;;;;14.17;13.47;;;15.60;99.90;;;;;;4990356;28;20461;-75
2022/09/28 09:29:32;;;;;;;14.00;13.30;;;15.60;99.90;;;;;;4990526;28;20474;-75
2022/09/28 09:32:11;;;;;;;14.00;13.33;;;16.20;99.90;;;;;;4990771;28;20792;-74
2022/09/28 09:35:07;;;;;;;13.63;12.80;;;16.50;99.90;;;;;;4990314;28;20454;-74
2022/09/28 09:37:48;;;;;;;12.57;11.97;;;17.00;99.90;;;;;;4990273;28;21281;-74
2022/09/28 09:40:32;;;;;;;13.13;12.53;;;16.70;99.90;;;;;;4990104;28;20442;-76
2022/09/28 09:43:17;;;;;;;13.70;12.90;;;16.50;99.90;;;;;;4990128;28;20501;-72
2022/09/28 09:45:57;;;;;;;13.73;12.90;;;16.50;99.90;;;;;;4990062;28;20928;-72
2022/09/28 09:48:28;;;;;;;14.17;13.57;;;16.20;99.90;;;;;;4990408;28;20446;-73
2022/09/28 09:50:59;;;;;;;12.47;11.87;;;16.30;99.90;;;;;;4990583;28;20545;-74
2022/09/28 09:53:31;;;;;;;13.17;12.57;;;16.60;99.90;;;;;;4990582;28;20462;-75
2022/09/28 09:56:03;;;;;;;12.60;12.10;;;16.50;99.90;;;;;;4990125;28;20586;-74
2022/09/28 09:58:36;;;;;;;12.60;12.10;;;16.40;99.90;;;;;;4990025;28;20458;-74
2022/09/28 10:01:08;;;;;;;13.93;13.03;;;16.40;99.90;;;;;;4990153;28;20627;-74
2022/09/28 10:03:39;;;;;;;13.73;12.97;;;16.70;99.90;;;;;;4989986;28;20954;-74
2022/09/28 10:06:09;;;;;;;13.30;12.63;;;16.60;99.90;;;;;;4989484;28;20455;-74
2022/09/28 10:08:41;;;;;;;13.20;12.57;;;16.60;99.90;;;;;;4989646;28;20455;-74
2022/09/28 10:11:12;;;;;;;13.00;12.40;;;16.60;99.90;;;;;;4989636;28;21008;-74
2022/09/28 10:13:41;;;;;;;13.43;12.77;;;16.60;99.90;;;;;;4990325;28;20462;-73
2022/09/28 10:16:08;;;;;;;13.47;12.60;;;16.90;99.90;;;;;;4989716;28;20490;-73
2022/09/28 10:18:36;;;;;;;12.70;12.10;;;17.00;99.90;;;;;;4989689;28;20500;-74
2022/09/28 10:21:03;;;;;;;14.77;13.90;;;17.60;99.90;;;;;;4989827;28;20442;-74
2022/09/28 10:23:32;;;;;;;12.67;11.90;;;17.40;99.90;;;;;;4989068;28;20455;-73
2022/09/28 10:26:05;;;;;;;14.40;13.50;;;17.10;99.90;;;;;;4989061;28;20454;-72
2022/09/28 10:28:39;;;;;;;13.10;12.30;;;17.30;99.90;;;;;;4989140;28;21149;-73
2022/09/28 10:31:35;;;;;;;12.73;12.07;;;17.60;99.90;;;;;;4989141;28;21078;-73
2022/09/28 10:34:03;;;;;;;12.13;11.63;;;17.80;99.90;;;;;;4986897;28;20477;-73
2022/09/28 10:36:37;;;;;;;12.60;12.00;;;17.80;99.90;;;;;;4985148;28;20545;-74
2022/09/28 10:39:04;;;;;;;12.80;12.20;;;17.80;99.90;;;;;;4989168;28;20473;-74
2022/09/28 10:41:31;;;;;;;12.30;11.70;;;17.90;99.90;;;;;;4989160;28;20497;-72
2022/09/28 10:44:05;;;;;;;12.20;11.60;;;17.70;99.90;;;;;;4989086;28;20454;-72
2022/09/28 10:46:33;;;;;;;12.73;12.20;;;17.10;99.90;;;;;;4989231;28;20478;-75
2022/09/28 10:49:04;;;;;;;12.73;12.10;;;17.10;99.90;;;;;;4989210;28;20458;-73
2022/09/28 10:51:41;;;;;;;13.13;12.50;;;17.10;99.90;;;;;;4988923;28;20482;-75
2022/09/28 10:54:15;;;;;;;12.43;11.83;;;17.10;99.90;;;;;;4989056;28;20501;-74
2022/09/28 10:56:41;;;;;;;12.53;11.93;;;16.90;99.90;;;;;;4989221;28;20546;-74
2022/09/28 10:59:24;;;;;;;12.80;12.30;;;17.00;99.90;;;;;;4988861;28;20447;-75
2022/09/28 11:01:55;;;;;;;13.27;12.57;;;17.30;99.70;;;;;;4988895;28;20808;-74
2022/09/28 11:04:27;;;;;;;12.50;12.00;;;17.50;99.80;;;;;;4988923;28;20791;-74
2022/09/28 11:06:58;;;;;;;12.47;11.87;;;18.00;99.50;;;;;;4988856;28;20454;-74
2022/09/28 11:09:29;;;;;;;12.80;12.20;;;17.90;98.80;;;;;;4988541;28;20481;-73
2022/09/28 11:11:56;;;;;;;12.60;12.07;;;17.40;99.90;;;;;;4980680;28;20541;-74
2022/09/28 11:14:29;;;;;;;13.00;12.40;;;17.70;99.60;;;;;;4976762;28;20470;-74
2022/09/28 11:17:15;;;;;;;12.93;12.23;;;17.80;99.30;;;;;;4971293;28;20480;-73
2022/09/28 11:19:44;;;;;;;13.97;12.83;;;18.10;97.60;;;;;;4969836;28;20452;-73
2022/09/28 11:22:22;;;;;;;12.77;12.23;;;17.90;98.00;;;;;;4969802;28;20824;-74
2022/09/28 11:24:49;;;;;;;13.40;12.70;;;17.80;98.30;;;;;;4969258;28;20980;-73
2022/09/28 11:27:24;;;;;;;12.67;11.93;;;17.70;97.80;;;;;;4969082;28;20459;-74
2022/09/28 11:29:58;;;;;;;11.73;11.23;;;17.80;97.70;;;;;;4968662;28;20554;-73
2022/09/28 11:32:28;;;;;;;11.73;11.23;;;17.70;97.20;;;;;;4969239;28;20455;-74
2022/09/28 11:34:59;;;;;;;13.10;12.50;;;17.80;97.10;;;;;;4967269;28;20483;-73
2022/09/28 11:37:42;;;;;;;12.93;12.27;;;17.10;97.70;;;;;;4969402;28;20471;-74
2022/09/28 11:40:22;;;;;;;12.60;12.00;;;17.10;98.50;;;;;;4969560;28;20475;-74
2022/09/28 11:42:56;;;;;;;13.37;12.57;;;16.80;98.30;;;;;;4969243;28;20452;-75
2022/09/28 11:45:33;;;;;;;12.30;11.70;;;16.80;99.00;;;;;;4969408;28;20451;-75
2022/09/28 11:48:03;;;;;;;14.47;13.63;;;16.80;99.10;;;;;;4966880;28;20448;-75
2022/09/28 11:50:42;;;;;;;13.57;12.73;;;17.30;98.70;;;;;;4968730;28;20997;-75
2022/09/28 11:53:18;;;;;;;13.37;12.70;;;17.40;98.10;;;;;;4969152;28;20929;-75
2022/09/28 11:55:50;;;;;;;13.50;12.77;;;17.90;98.10;;;;;;4968912;28;20486;-74
2022/09/28 11:58:24;;;;;;;11.80;11.30;;;17.90;96.80;;;;;;4968476;28;20455;-75
2022/09/28 12:00:56;;;;;;;11.83;11.27;;;18.30;95.90;;;;;;4968643;28;20455;-73
2022/09/28 12:03:29;;;;;;;12.67;12.10;;;18.20;97.20;;;;;;4968618;28;20452;-73
2022/09/28 12:06:02;;;;;;;13.87;13.20;;;18.80;95.60;;;;;;4968924;28;20876;-74
2022/09/28 12:08:31;;;;;;;12.03;11.40;;;18.60;95.20;;;;;;4968979;28;20451;-74
2022/09/28 12:11:02;;;;;;;12.87;12.27;;;18.30;94.80;;;;;;4968796;28;20491;-75
2022/09/28 12:13:33;;;;;;;13.50;13.00;;;18.80;94.70;;;;;;4968993;28;20455;-75
2022/09/28 12:16:03;;;;;;;12.10;11.60;;;19.40;94.20;;;;;;4968113;28;20483;-75
2022/09/28 12:18:37;;;;;;;11.57;10.97;;;19.50;93.80;;;;;;4968510;28;20463;-74
2022/09/28 12:21:14;;;;;;;12.30;11.77;;;18.90;93.20;;;;;;4968499;28;20514;-75
2022/09/28 12:23:43;;;;;;;12.17;11.67;;;18.40;93.30;;;;;;4969048;28;20463;-74
2022/09/28 12:26:21;;;;;;;13.53;12.73;;;18.40;93.50;;;;;;4968794;28;20506;-75
2022/09/28 12:28:52;;;;;;;12.70;12.03;;;18.50;93.80;;;;;;4970264;28;20451;-74
2022/09/28 12:31:25;;;;;;;12.90;12.40;;;19.30;93.40;;;;;;4971818;28;20495;-75
2022/09/28 12:33:52;;;;;;;13.27;12.57;;;19.70;91.20;;;;;;4971899;28;20466;-75
2022/09/28 12:36:40;;;;;;;12.20;11.70;;;19.80;91.60;;;;;;4971697;28;20510;-75
2022/09/28 12:39:22;;;;;;;13.17;12.40;;;20.20;90.70;;;;;;4971650;28;20984;-75
2022/09/28 12:42:04;;;;;;;12.60;11.90;;;20.30;89.80;;;;;;4971666;28;20502;-75
2022/09/28 12:44:46;;;;;;;12.53;11.93;;;20.20;88.80;;;;;;4971706;28;20487;-75
2022/09/28 12:47:29;;;;;;;13.70;13.00;;;20.30;85.80;;;;;;4971679;28;20514;-75
2022/09/28 12:50:09;;;;;;;13.03;12.40;;;20.30;84.10;;;;;;4971925;28;20816;-75
2022/09/28 12:52:46;;;;;;;12.37;11.70;;;19.80;84.30;;;;;;4971331;28;20455;-75
2022/09/28 12:55:23;;;;;;;11.10;10.70;;;19.60;84.80;;;;;;4971796;28;20451;-75
2022/09/28 12:57:58;;;;;;;12.60;12.10;;;19.30;85.90;;;;;;4971394;28;20451;-74
2022/09/28 13:00:31;;;;;;;12.90;12.20;;;18.90;87.50;;;;;;4971848;28;20529;-75
2022/09/28 13:03:12;;;;;;;11.80;11.30;;;18.90;89.20;;;;;;4971567;28;20491;-75
2022/09/28 13:06:00;;;;;;;12.10;11.50;;;18.70;89.00;;;;;;4971673;28;20447;-76
2022/09/28 13:08:36;;;;;;;11.77;10.97;;;18.50;89.40;;;;;;4971988;28;20451;-75
2022/09/28 13:11:14;;;;;;;12.20;11.50;;;18.60;90.10;;;;;;4971549;28;20491;-75
2022/09/28 13:13:50;;;;;;;12.00;11.40;;;18.40;90.00;;;;;;4972068;28;20864;-75
2022/09/28 13:16:23;;;;;;;11.90;11.30;;;18.50;87.50;;;;;;4971505;28;21004;-75
2022/09/28 13:19:00;;;;;;;11.40;10.80;;;18.20;87.30;;;;;;4971745;28;20643;-75
2022/09/28 13:21:33;;;;;;;12.07;11.57;;;18.30;88.80;;;;;;4972189;28;20451;-75
2022/09/28 13:24:04;;;;;;;11.20;10.70;;;18.20;88.60;;;;;;4971742;28;20451;-74
2022/09/28 13:26:35;;;;;;;11.17;10.70;;;18.00;88.60;;;;;;4971488;28;20506;-74
2022/09/28 13:29:10;;;;;;;11.20;10.70;;;18.10;88.40;;;;;;4971124;28;20466;-74
2022/09/28 13:31:42;;;;;;;11.50;11.00;;;18.10;88.50;;;;;;4971063;28;21000;-75
2022/09/28 13:34:19;;;;;;;11.10;10.73;;;18.20;87.60;;;;;;4971625;28;20832;-74
2022/09/28 13:36:46;;;;;;;12.63;12.00;;;18.10;87.60;;;;;;4970966;28;20455;-75
2022/09/28 13:39:47;;;;;;;11.40;11.00;;;18.10;88.70;;;;;;4969296;28;20454;-75
2022/09/28 13:42:24;;;;;;;11.90;11.50;;;18.40;88.20;;;;;;4967161;28;20452;-75
2022/09/28 13:45:25;;;;;;;11.90;11.40;;;18.10;88.50;;;;;;4971063;28;20460;-74
2022/09/28 13:48:18;;;;;;;11.40;10.90;;;18.10;89.60;;;;;;4970949;28;20447;-74
2022/09/28 13:51:12;;;;;;;12.17;11.57;;;18.20;88.20;;;;;;4968282;28;20587;-74
2022/09/28 13:54:00;;;;;;;11.33;10.93;;;18.00;86.10;;;;;;4970109;28;20463;-74
2022/09/28 13:56:36;;;;;;;12.03;11.53;;;18.00;87.60;;;;;;4971142;28;20452;-74
2022/09/28 13:59:14;;;;;;;12.37;11.87;;;17.80;87.10;;;;;;4970771;28;20555;-74
2022/09/28 14:01:46;;;;;;;10.93;10.47;;;17.70;88.10;;;;;;4971180;28;20462;-74
2022/09/28 14:04:17;;;;;;;11.00;10.47;;;17.50;88.70;;;;;;4970983;28;20439;-73
2022/09/28 14:06:49;;;;;;;10.30;10.00;;;17.50;90.40;;;;;;4971228;28;20452;-74
2022/09/28 14:09:42;;;;;;;11.10;10.60;;;17.30;90.10;;;;;;4971236;28;20436;-74
2022/09/28 14:12:42;;;;;;;11.83;11.23;;;17.00;89.20;;;;;;4971169;28;20506;-75
2022/09/28 14:15:42;;;;;;;11.00;10.60;;;17.00;90.00;;;;;;4970680;28;20467;-74
2022/09/28 14:18:27;;;;;;;10.93;10.53;;;16.90;89.70;;;;;;4970935;28;20538;-75
2022/09/28 14:21:25;;;;;;;11.50;11.10;;;16.90;90.50;;;;;;4970519;28;20822;-75
2022/09/28 14:24:06;;;;;;;10.90;10.40;;;16.90;90.80;;;;;;4970704;28;20456;-74
2022/09/28 14:27:03;;;;;;;10.90;10.50;;;16.80;90.50;;;;;;4970451;28;21013;-74
2022/09/28 14:29:33;;;;;;;10.80;10.40;;;16.70;90.80;;;;;;4970435;28;20474;-73
2022/09/28 14:32:21;;;;;;;11.00;10.50;;;17.00;90.20;;;;;;4974677;28;20491;-73
2022/09/28 14:34:55;;;;;;;10.27;9.87;;;16.90;90.80;;;;;;4980120;28;20443;-74
2022/09/28 14:43:27;;;;;;;11.00;10.50;;;16.60;91.10;;;;;;4978993;28;20664;-74
2022/09/28 14:46:28;;;;;;;11.63;11.13;;;16.50;91.80;;;;;;4976995;28;20796;-74
2022/09/28 14:48:58;;;;;;;11.60;11.20;;;16.40;92.50;;;;;;4971516;28;20945;-73
2022/09/28 14:51:44;;;;;;;11.83;11.33;;;16.50;92.10;;;;;;4978929;28;20478;-74
2022/09/28 14:54:19;;;;;;;12.07;11.50;;;16.40;92.70;;;;;;4980558;28;20473;-74
2022/09/28 14:57:06;;;;;;;11.50;11.07;;;16.40;92.60;;;;;;4979745;28;20459;-74
2022/09/28 14:59:41;;;;;;;10.83;10.37;;;16.40;92.80;;;;;;4980043;28;20474;-73
2022/09/28 15:02:16;;;;;;;11.17;10.57;;;16.50;92.40;;;;;;4980299;28;20443;-74
2022/09/28 15:04:49;;;;;;;11.23;10.80;;;16.40;92.80;;;;;;4979520;28;20490;-73
2022/09/28 15:07:21;;;;;;;10.93;10.33;;;16.20;92.00;;;;;;4978296;28;20447;-74
2022/09/28 15:09:50;;;;;;;12.30;11.50;;;16.20;93.00;;;;;;4977538;28;20716;-75
2022/09/28 15:12:19;;;;;;;10.90;10.40;;;15.90;92.60;;;;;;4978410;28;20577;-74
2022/09/28 15:14:51;;;;;;;10.60;10.20;;;16.10;93.10;;;;;;4970443;28;20476;-73
2022/09/28 15:17:22;;;;;;;10.50;10.20;;;16.20;92.30;;;;;;4969451;28;20497;-73
2022/09/28 15:20:00;;;;;;;11.10;10.67;;;16.10;92.10;;;;;;4969621;28;20459;-74
2022/09/28 15:22:29;;;;;;;11.27;10.83;;;16.10;92.50;;;;;;4969818;28;20456;-74
2022/09/28 15:24:57;;;;;;;9.83;9.43;;;16.00;92.60;;;;;;4969713;28;20456;-72
2022/09/28 15:27:24;;;;;;;9.90;9.60;;;15.90;93.40;;;;;;4969579;28;20777;-74
2022/09/28 15:29:58;;;;;;;10.20;9.80;;;16.00;92.40;;;;;;4969362;28;20511;-73
2022/09/28 15:32:25;;;;;;;10.40;10.00;;;16.10;92.80;;;;;;4969425;28;20522;-73
2022/09/28 15:34:53;;;;;;;11.40;10.70;;;16.10;92.20;;;;;;4969103;28;20459;-73
2022/09/28 15:37:22;;;;;;;11.20;10.60;;;16.10;92.90;;;;;;4969194;28;20490;-73
2022/09/28 15:39:51;;;;;;;10.67;10.37;;;15.90;93.00;;;;;;4969041;28;20447;-74
2022/09/28 15:42:19;;;;;;;10.20;9.80;;;16.00;93.40;;;;;;4969104;28;20510;-73
2022/09/28 15:45:06;;;;;;;11.37;10.87;;;16.00;92.80;;;;;;4969028;28;20457;-73
2022/09/28 15:47:34;;;;;;;11.50;11.00;;;15.90;93.20;;;;;;4968962;28;21025;-72
2022/09/28 15:50:04;;;;;;;9.97;9.57;;;15.60;93.00;;;;;;4968978;28;20809;-71
2022/09/28 15:52:36;;;;;;;10.77;10.30;;;15.30;93.70;;;;;;4969136;28;20910;-73
2022/09/28 15:55:16;;;;;;;10.80;10.40;;;15.30;94.20;;;;;;4969103;28;20455;-73
2022/09/28 15:57:43;;;;;;;10.93;10.43;;;15.10;94.30;;;;;;4969234;28;20972;-73
2022/09/28 16:00:25;;;;;;;10.67;10.20;;;15.10;94.80;;;;;;4969345;28;20880;-73
2022/09/28 16:03:04;;;;;;;10.50;10.10;;;15.10;95.20;;;;;;4969667;28;20562;-73
2022/09/28 16:05:44;;;;;;;10.30;9.90;;;15.00;95.70;;;;;;4986596;28;20482;-73
2022/09/28 16:08:20;;;;;;;10.60;10.10;;;14.90;96.10;;;;;;4992615;28;20526;-72
2022/09/28 16:11:06;;;;;;;10.30;9.90;;;14.90;96.40;;;;;;4991926;28;20884;-72
2022/09/28 16:13:33;;;;;;;10.40;9.70;;;14.90;96.70;;;;;;4991687;28;20549;-73
2022/09/28 16:16:00;;;;;;;9.53;9.10;;;14.80;97.30;;;;;;4991776;28;20565;-74
2022/09/28 16:18:29;;;;;;;10.10;9.60;;;14.60;97.80;;;;;;4992142;28;20458;-71
2022/09/28 16:21:20;;;;;;;10.23;9.70;;;14.50;98.30;;;;;;4991889;28;20830;-72
2022/09/28 16:23:54;;;;;;;11.63;10.60;;;14.40;99.00;;;;;;4991286;28;20462;-73
2022/09/28 16:26:30;;;;;;;10.63;10.30;;;14.30;99.90;;;;;;4991645;28;20835;-73
2022/09/28 16:28:58;;;;;;;9.90;9.47;;;14.30;99.40;;;;;;4991758;28;20473;-73
2022/09/28 16:31:35;;;;;;;9.77;9.27;;;14.30;99.90;;;;;;4991770;28;20548;-72
2022/09/28 16:34:18;;;;;;;9.93;9.43;;;14.20;99.90;;;;;;4991626;28;20454;-72
2022/09/28 16:36:48;;;;;;;11.13;10.40;;;14.10;99.90;;;;;;4991571;28;20478;-72
2022/09/28 16:39:18;;;;;;;10.47;9.90;;;14.00;99.90;;;;;;4991571;28;20466;-72
2022/09/28 16:41:50;;;;;;;10.10;9.70;;;13.90;99.90;;;;;;4991683;28;20446;-72
2022/09/28 16:44:23;;;;;;;10.20;9.70;;;14.00;99.90;;;;;;4991620;28;20530;-73
2022/09/28 16:46:52;;;;;;;10.47;10.07;;;13.70;99.90;;;;;;4991240;28;21034;-72
2022/09/28 16:49:19;;;;;;;9.63;9.23;;;13.60;99.90;;;;;;4991420;28;20860;-72
2022/09/28 16:51:48;;;;;;;10.50;10.10;;;13.50;99.90;;;;;;4991112;28;20487;-72
2022/09/28 16:57:04;;;;;;;11.37;10.83;;;13.30;99.90;;;;;;4991612;28;20666;-72
2022/09/28 16:59:32;;;;;;;10.77;10.27;;;13.20;99.90;;;;;;4980352;28;20819;-73
2022/09/28 17:01:58;;;;;;;11.03;10.53;;;13.10;99.90;;;;;;4980563;28;20440;-74
2022/09/28 17:04:26;;;;;;;11.03;10.57;;;13.10;99.90;;;;;;4981430;28;20534;-73